Flight Track Log - Related Links

Times and Time Zones

All times are in EDT time to prevent confusion due to time zone crossing. See the N465TP flight status page for this flight to view local times or setup timezone preferences in your user account.

Time Position Orientation Groundspeed Altitude Reporting Facility
EDT Latitude Longitude Course Direction KTS MPH feet Rate Location/Type
Mon 02:28:51 PM 37.6333 -122.3500 50° Northeast 130 150 1,100  Level Northern Cal TRACON
Mon 02:29:51 PM 37.6667 -122.3167 38° Northeast 124 143 2,700 1,388 Climbing Northern Cal TRACON
Mon 02:30:52 PM 37.6833 -122.2833 58° Northeast 145 167 3,900 1,200 Climbing Northern Cal TRACON
Mon 02:31:46 PM 37.7167 -122.2500 38° Northeast 154 177 5,000 1,211 Climbing Northern Cal TRACON
Mon 02:32:46 PM 37.7333 -122.2000 67° East 162 186 6,200 1,200 Climbing Northern Cal TRACON
Mon 02:33:46 PM 37.7667 -122.1500 50° Northeast 171 197 7,400 1,250 Climbing Northern Cal TRACON
Mon 02:34:00 PM 37.6199 -122.3618 50° Northeast  Level FlightAware Approximate
Mon 02:34:46 PM 37.8000 -122.1000 50° Northeast 180 207 8,700  Level Northern Cal TRACON
Mon 02:35:41 PM 37.8167 -122.0500 67° East 184 212 9,700 1,043 Climbing Northern Cal TRACON
Mon 02:36:41 PM 37.8500 -122.0000 50° Northeast 188 216 10,700 1,100 Climbing Northern Cal TRACON
Mon 02:37:41 PM 37.8833 -121.9500 50° Northeast 194 223 11,900 1,107 Climbing Northern Cal TRACON
Mon 02:38:24 PM 37.9075 -121.9042 56° Northeast 192 221 12,600 1,029 Climbing Oakland Center
Mon 02:39:26 PM 37.9381 -121.8467 56° Northeast 196 226 13,700 1,065 Climbing Oakland Center
Mon 02:40:28 PM 37.9750 -121.7944 48° Northeast 202 232 14,800 1,113 Climbing Oakland Center
Mon 02:41:30 PM 38.0333 -121.7753 15° North 215 247 16,000 1,073 Climbing Oakland Center
Mon 02:42:31 PM 38.0897 -121.7561 15° North 212 244 17,000 976 Climbing Oakland Center
Mon 02:43:33 PM 38.1506 -121.7381 13° North 221 254 18,000 1,016 Climbing Oakland Center
Mon 02:44:35 PM 38.2131 -121.7183 14° North 229 264 19,100 1,113 Climbing Oakland Center
Mon 02:45:37 PM 38.2886 -121.6911 16° North 237 273 20,300 1,024 Climbing Oakland Center
Mon 02:46:38 PM 38.3522 -121.6694 15° North 237 273 21,200 878 Climbing Oakland Center
Mon 02:47:40 PM 38.4164 -121.6422 18° North 242 278 22,100 919 Climbing Oakland Center
Mon 02:48:42 PM 38.4908 -121.6142 16° North 251 289 23,100 968 Climbing Oakland Center
Mon 02:49:44 PM 38.5611 -121.5903 15° North 257 296 24,100 829 Climbing Oakland Center
Mon 02:50:45 PM 38.6317 -121.5636 16° North 261 300 24,800 390 Climbing Oakland Center
Mon 02:51:47 PM 38.7019 -121.5208 25° Northeast 291 335 24,900 242 Climbing Oakland Center
Mon 02:52:49 PM 38.7397 -121.4275 63° Northeast 293 337 25,300 774 Climbing Oakland Center
Mon 02:53:51 PM 38.7756 -121.3439 61° Northeast 268 308 26,500 774 Climbing Oakland Center
Mon 02:54:53 PM 38.8117 -121.2606 61° Northeast 266 306 26,900 194 Climbing Oakland Center
Mon 02:55:55 PM 38.8489 -121.1711 62° Northeast 280 322 26,900  Level Oakland Center
Mon 02:56:56 PM 38.8900 -121.0803 60° Northeast 291 335 26,900  Level Oakland Center
Mon 02:57:58 PM 38.9297 -120.9872 61° Northeast 297 342 26,900  Level Oakland Center
Mon 02:59:00 PM 38.9761 -120.8772 61° Northeast 294 338 26,900  Level Oakland Center
Mon 03:00:02 PM 39.0147 -120.7864 61° Northeast 291 335 26,900  Level Oakland Center
Mon 03:01:04 PM 39.0533 -120.6967 61° Northeast 288 331 26,900  Level Oakland Center
Mon 03:02:05 PM 39.0911 -120.6067 62° Northeast 287 330 26,900  Level Oakland Center
Mon 03:03:07 PM 39.1286 -120.5172 62° Northeast 286 329 26,900  Level Oakland Center
Mon 03:04:09 PM 39.1672 -120.4269 61° Northeast 287 330 26,900  Level Oakland Center
Mon 03:05:11 PM 39.2056 -120.3372 61° Northeast 285 328 26,900  Level Oakland Center
Mon 03:06:13 PM 39.2506 -120.2297 62° Northeast 283 326 26,900  Level Oakland Center
Mon 03:07:14 PM 39.2892 -120.1400 61° Northeast 286 329 26,900  Level Oakland Center
Mon 03:08:16 PM 39.3294 -120.0450 61° Northeast 291 335 26,900  Level Oakland Center
Mon 03:09:18 PM 39.3664 -119.9544 62° Northeast 286 329 26,900  Level Oakland Center
Mon 03:10:20 PM 39.4050 -119.8639 61° Northeast 288 331 26,900  Level Oakland Center
Mon 03:11:22 PM 39.4428 -119.7747 61° Northeast 283 326 26,900  Level Oakland Center
Mon 03:12:24 PM 39.4786 -119.6844 63° Northeast 282 325 26,900  Level Oakland Center
Mon 03:13:26 PM 39.5167 -119.5969 61° Northeast 279 321 26,900  Level Oakland Center
Mon 03:14:27 PM 39.5600 -119.4892 62° Northeast 278 320 26,900  Level Oakland Center
Mon 03:15:29 PM 39.5964 -119.3992 62° Northeast 282 325 26,900  Level Oakland Center
Mon 03:16:31 PM 39.6325 -119.3119 62° Northeast 276 318 26,900  Level Oakland Center
Mon 03:17:33 PM 39.6686 -119.2228 62° Northeast 277 319 26,900 48 Level Oakland Center
Mon 03:18:35 PM 39.7053 -119.1325 62° Northeast 279 321 27,000  Climbing Oakland Center
Mon 03:19:37 PM 39.7419 -119.0422 62° Northeast 280 322 26,900 -49 Descending Oakland Center
Mon 03:20:38 PM 39.7792 -118.9514 62° Northeast 282 325 26,900 49 Level Oakland Center
Mon 03:21:40 PM 39.8153 -118.8600 63° Northeast 284 327 27,000 48 Climbing Oakland Center
Mon 03:22:42 PM 39.8583 -118.7503 63° Northeast 282 325 27,000 -48 Level Oakland Center
Mon 03:23:44 PM 39.8950 -118.6594 62° Northeast 283 326 26,900 -48 Descending Oakland Center
Mon 03:24:46 PM 39.9317 -118.5683 62° Northeast 283 326 26,900 48 Level Oakland Center
Mon 03:25:48 PM 39.9681 -118.4750 63° Northeast 286 329 27,000  Climbing Oakland Center
Mon 03:26:50 PM 40.0056 -118.3811 62° Northeast 290 334 26,900 -49 Descending Oakland Center
Mon 03:27:51 PM 40.0428 -118.2875 63° Northeast 290 334 26,900  Level Oakland Center
Mon 03:28:53 PM 40.0786 -118.1931 64° Northeast 291 335 26,900 48 Level Oakland Center
Mon 03:29:55 PM 40.1150 -118.1008 63° Northeast 286 329 27,000  Climbing Oakland Center
Mon 03:30:57 PM 40.1589 -117.9892 63° Northeast 287 330 26,900 -48 Descending Oakland Center
Mon 03:31:59 PM 40.1953 -117.8967 63° Northeast 286 329 26,900  Level Oakland Center
Mon 03:32:50 PM 40.2253 -117.8203 63° Northeast 283 326 26,900  Level Salt Lake Center
Mon 03:33:52 PM 40.2592 -117.7336 63° Northeast 280 322 26,900  Level Salt Lake Center
Mon 03:34:55 PM 40.2983 -117.6322 63° Northeast 280 322 26,900  Level Salt Lake Center
Mon 03:35:57 PM 40.3325 -117.5439 63° Northeast 282 325 26,900  Level Salt Lake Center
Mon 03:36:59 PM 40.3722 -117.4411 63° Northeast 283 326 26,900  Level Salt Lake Center
Mon 03:38:01 PM 40.4064 -117.3536 63° Northeast 283 326 26,900  Level Salt Lake Center
Mon 03:39:03 PM 40.4467 -117.2506 63° Northeast 282 325 26,900  Level Salt Lake Center
Mon 03:40:05 PM 40.4822 -117.1628 62° Northeast 283 326 26,900 48 Level Salt Lake Center
Mon 03:41:07 PM 40.5169 -117.0753 62° Northeast 282 325 27,000  Climbing Salt Lake Center
Mon 03:42:09 PM 40.5578 -116.9725 62° Northeast 281 323 26,900 -48 Descending Salt Lake Center
Mon 03:43:11 PM 40.5919 -116.8836 63° Northeast 282 325 26,900  Level Salt Lake Center
Mon 03:44:13 PM 40.6319 -116.7794 63° Northeast 284 327 26,900  Level Salt Lake Center
Mon 03:45:15 PM 40.6656 -116.6919 63° Northeast 280 322 26,900  Level Salt Lake Center
Mon 03:46:17 PM 40.7003 -116.6028 63° Northeast 283 326 26,900  Level Salt Lake Center
Mon 03:47:19 PM 40.7408 -116.5000 62° Northeast 283 326 26,900  Level Salt Lake Center
Mon 03:48:20 PM 40.7747 -116.4131 63° Northeast 279 321 26,900  Level Salt Lake Center
Mon 03:49:22 PM 40.8142 -116.3103 63° Northeast 279 321 26,900 48 Level Salt Lake Center
Mon 03:50:24 PM 40.8478 -116.2225 63° Northeast 280 322 27,000  Climbing Salt Lake Center
Mon 03:51:26 PM 40.8869 -116.1189 63° Northeast 281 323 26,900 -48 Descending Salt Lake Center
Mon 03:52:28 PM 40.9203 -116.0297 64° Northeast 282 325 26,900 48 Level Salt Lake Center
Mon 03:53:30 PM 40.9600 -115.9281 63° Northeast 279 321 27,000 48 Climbing Salt Lake Center
Mon 03:54:32 PM 40.9925 -115.8397 64° Northeast 279 321 27,000  Level Salt Lake Center
Mon 03:55:34 PM 41.0314 -115.7375 63° Northeast 279 321 27,000 -48 Level Salt Lake Center
Mon 03:56:36 PM 41.0639 -115.6494 64° Northeast 278 320 26,900  Descending Salt Lake Center
Mon 03:57:38 PM 41.0978 -115.5611 63° Northeast 280 322 27,000  Climbing Salt Lake Center
Mon 03:58:40 PM 41.1358 -115.4575 64° Northeast 279 321 26,900  Descending Salt Lake Center
Mon 03:59:41 PM 41.1675 -115.3694 64° Northeast 278 320 27,000  Climbing Salt Lake Center
Mon 04:00:43 PM 41.2075 -115.2656 63° Northeast 281 323 26,900 -48 Descending Salt Lake Center
Mon 04:01:45 PM 41.2394 -115.1783 64° Northeast 278 320 26,900  Level Salt Lake Center
Mon 04:02:48 PM 41.2767 -115.0714 65° Northeast 283 326 26,900  Level Salt Lake Center
Mon 04:03:49 PM 41.3114 -114.9833 62° Northeast 282 325 26,900  Level Salt Lake Center
Mon 04:04:51 PM 41.3503 -114.8789 64° Northeast 282 325 26,900 48 Level Salt Lake Center
Mon 04:05:53 PM 41.3797 -114.7947 65° Northeast 283 326 27,000 49 Climbing Salt Lake Center
Mon 04:06:54 PM 41.4144 -114.7011 64° Northeast 282 325 27,000  Level Salt Lake Center
Mon 04:07:56 PM 41.4550 -114.5881 64° Northeast 282 325 27,000 -48 Level Salt Lake Center
Mon 04:08:58 PM 41.4872 -114.4922 66° East 283 326 26,900  Descending Salt Lake Center
Mon 04:10:00 PM 41.5225 -114.3997 63° Northeast 281 323 27,000 48 Climbing Salt Lake Center
Mon 04:11:02 PM 41.5564 -114.3053 64° Northeast 282 325 27,000 -48 Level Salt Lake Center
Mon 04:12:04 PM 41.5906 -114.2114 64° Northeast 282 325 26,900 -48 Descending Salt Lake Center
Mon 04:13:06 PM 41.6217 -114.1181 66° East 277 319 26,900 48 Level Salt Lake Center
Mon 04:14:08 PM 41.6633 -114.0061 63° Northeast 280 322 27,000  Climbing Salt Lake Center
Mon 04:15:10 PM 41.6944 -113.9128 66° East 277 319 26,900  Descending Salt Lake Center
Mon 04:16:12 PM 41.7278 -113.8181 65° Northeast 279 321 27,000 48 Climbing Salt Lake Center
Mon 04:17:14 PM 41.7614 -113.7233 65° Northeast 281 323 27,000 -48 Level Salt Lake Center
Mon 04:18:16 PM 41.7939 -113.6306 65° Northeast 276 318 26,900  Descending Salt Lake Center
Mon 04:19:17 PM 41.8278 -113.5369 64° Northeast 278 320 27,000 49 Climbing Salt Lake Center
Mon 04:20:19 PM 41.8608 -113.4411 65° Northeast 282 325 27,000  Level Salt Lake Center
Mon 04:21:21 PM 41.9000 -113.3269 65° Northeast 281 323 27,000 -48 Level Salt Lake Center
Mon 04:22:23 PM 41.9328 -113.2328 65° Northeast 281 323 26,900  Descending Salt Lake Center
Mon 04:23:25 PM 41.9653 -113.1381 65° Northeast 279 321 27,000 48 Climbing Salt Lake Center
Mon 04:24:27 PM 41.9972 -113.0439 65° Northeast 279 321 27,000  Level Salt Lake Center
Mon 04:25:29 PM 42.0300 -112.9511 65° Northeast 276 318 27,000  Level Salt Lake Center
Mon 04:26:31 PM 42.0614 -112.8569 66° East 276 318 27,000  Level Salt Lake Center
Mon 04:27:33 PM 42.0992 -112.7456 65° Northeast 273 314 27,000  Level Salt Lake Center
Mon 04:28:35 PM 42.1303 -112.6519 66° East 273 314 27,000  Level Salt Lake Center
Mon 04:29:37 PM 42.1614 -112.5597 66° East 272 313 27,000  Level Salt Lake Center
Mon 04:30:38 PM 42.1942 -112.4650 65° Northeast 278 320 27,000  Level Salt Lake Center
Mon 04:31:40 PM 42.2367 -112.3803 56° Northeast 280 322 27,000  Level Salt Lake Center
Mon 04:32:42 PM 42.2581 -112.2825 74° East 273 314 27,000  Level Salt Lake Center
Mon 04:33:44 PM 42.2892 -112.1883 66° East 275 316 27,000 -48 Level Salt Lake Center
Mon 04:34:46 PM 42.3286 -112.0767 64° Northeast 274 315 26,900 -48 Descending Salt Lake Center
Mon 04:35:48 PM 42.3594 -111.9814 66° East 277 319 26,900 48 Level Salt Lake Center
Mon 04:36:50 PM 42.3922 -111.8889 64° Northeast 275 316 27,000 49 Climbing Salt Lake Center
Mon 04:37:51 PM 42.4239 -111.7958 65° Northeast 274 315 27,000  Level Salt Lake Center
Mon 04:38:53 PM 42.4539 -111.7033 66° East 270 311 27,000  Level Salt Lake Center
Mon 04:39:55 PM 42.4853 -111.6117 65° Northeast 268 308 27,000  Level Salt Lake Center
Mon 04:40:57 PM 42.5172 -111.5189 65° Northeast 272 313 27,000  Level Salt Lake Center
Mon 04:41:59 PM 42.5550 -111.4067 65° Northeast 274 315 27,000 -48 Level Salt Lake Center
Mon 04:43:01 PM 42.5864 -111.3128 66° East 272 313 26,900  Descending Salt Lake Center
Mon 04:44:03 PM 42.6169 -111.2186 66° East 271 312 27,000 49 Climbing Salt Lake Center
Mon 04:45:04 PM 42.6483 -111.1247 66° East 273 314 27,000  Level Salt Lake Center
Mon 04:46:06 PM 42.6792 -111.0319 66° East 271 312 27,000  Level Salt Lake Center
Mon 04:47:08 PM 42.7331 -110.9425 51° Northeast 283 326 27,000  Level Salt Lake Center
Mon 04:48:10 PM 42.7867 -110.8750 43° Northeast 277 319 27,000  Level Salt Lake Center
Mon 04:49:12 PM 42.8492 -110.7922 44° Northeast 279 321 27,000  Level Salt Lake Center
Mon 04:50:14 PM 42.9028 -110.7228 43° Northeast 279 321 27,000  Level Salt Lake Center
Mon 04:51:16 PM 42.9650 -110.6389 45° Northeast 283 326 27,000  Level Salt Lake Center
Mon 04:52:18 PM 43.0194 -110.5678 44° Northeast 283 326 27,000 -48 Level Salt Lake Center
Mon 04:53:20 PM 43.0842 -110.4847 43° Northeast 286 329 26,900  Descending Salt Lake Center
Mon 04:54:22 PM 43.1389 -110.4097 45° Northeast 289 333 27,000 48 Climbing Salt Lake Center
Mon 04:55:24 PM 43.2025 -110.3250 44° Northeast 288 331 27,000  Level Salt Lake Center
Mon 04:56:26 PM 43.2594 -110.2481 45° Northeast 289 333 27,000  Level Salt Lake Center
Mon 04:57:27 PM 43.3139 -110.1747 44° Northeast 288 331 27,000  Level Salt Lake Center
Mon 04:58:29 PM 43.3772 -110.0886 45° Northeast 287 330 27,000  Level Salt Lake Center
Mon 04:59:31 PM 43.4311 -110.0158 44° Northeast 285 328 27,000  Level Salt Lake Center
Mon 05:00:33 PM 43.4928 -109.9325 44° Northeast 280 322 27,000  Level Salt Lake Center
Mon 05:01:35 PM 43.5425 -109.8633 45° Northeast 278 320 27,000  Level Salt Lake Center
Mon 05:02:37 PM 43.6039 -109.7822 44° Northeast 277 319 27,000  Level Salt Lake Center
Mon 05:03:39 PM 43.6575 -109.7092 45° Northeast 281 323 27,000  Level Salt Lake Center
Mon 05:04:40 PM 43.7194 -109.6247 45° Northeast 281 323 27,000  Level Salt Lake Center
Mon 05:05:42 PM 43.7719 -109.5500 46° Northeast 282 325 27,000  Level Salt Lake Center
Mon 05:06:44 PM 43.8347 -109.4669 44° Northeast 286 329 27,000  Level Salt Lake Center
Mon 05:07:46 PM 43.8889 -109.3894 46° Northeast 281 323 27,000 -145 Level Salt Lake Center
Mon 05:08:48 PM 43.9453 -109.3131 44° Northeast 283 326 26,700 -968 Descending Salt Lake Center
Mon 05:09:50 PM 44.0044 -109.2300 45° Northeast 298 343 25,000 -1,742 Descending Salt Lake Center
Mon 05:10:52 PM 44.0642 -109.1461 45° Northeast 305 351 23,100 -2,081 Descending Salt Lake Center
Mon 05:11:54 PM 44.1303 -109.0533 45° Northeast 288 331 20,700 -1,902 Descending Salt Lake Center
Mon 05:12:55 PM 44.1831 -108.9792 45° Northeast 276 318 19,200 -1,463 Descending Salt Lake Center
Mon 05:13:57 PM 44.2367 -108.9050 45° Northeast 271 312 17,700 -1,403 Descending Salt Lake Center
Mon 05:14:59 PM 44.2900 -108.8297 45° Northeast 273 314 16,300 -1,403 Descending Salt Lake Center
Mon 05:16:01 PM 44.3375 -108.7583 47° Northeast 261 300 14,800 -1,452 Descending Salt Lake Center
Mon 05:17:03 PM 44.2997 -108.7550 176° South 226 260 13,300 -1,452 Descending Salt Lake Center
Mon 05:18:05 PM 44.3422 -108.8214 312° West 231 266 11,800 -1,645 Descending Salt Lake Center
Mon 05:19:07 PM 44.4033 -108.8906 321° Northwest 234 269 9,900 -1,839 Descending Salt Lake Center

Login

Don't have an account? Register now (free) for customized features, flight alerts, and more!